sensor_id;sensor_type;location;lat;lon;timestamp;temperature;humidity
3727;DHT22;1879;45.876;12.300;2022-11-27T00:00:57;5.90;99.90
3727;DHT22;1879;45.876;12.300;2022-11-27T00:03:25;6.00;99.90
3727;DHT22;1879;45.876;12.300;2022-11-27T00:05:53;5.90;99.90
3727;DHT22;1879;45.876;12.300;2022-11-27T00:08:20;5.90;99.90
3727;DHT22;1879;45.876;12.300;2022-11-27T00:10:49;5.90;99.90
3727;DHT22;1879;45.876;12.300;2022-11-27T00:13:16;5.80;99.90
3727;DHT22;1879;45.876;12.300;2022-11-27T00:15:43;5.80;99.90
3727;DHT22;1879;45.876;12.300;2022-11-27T00:18:10;5.70;99.90
3727;DHT22;1879;45.876;12.300;2022-11-27T00:20:37;5.80;99.90
3727;DHT22;1879;45.876;12.300;2022-11-27T00:23:05;5.70;99.90
3727;DHT22;1879;45.876;12.300;2022-11-27T00:25:32;5.60;99.90
3727;DHT22;1879;45.876;12.300;2022-11-27T00:28:00;5.70;99.90
3727;DHT22;1879;45.876;12.300;2022-11-27T00:30:27;5.60;99.90
3727;DHT22;1879;45.876;12.300;2022-11-27T00:32:54;5.70;99.90
3727;DHT22;1879;45.876;12.300;2022-11-27T00:35:21;5.70;99.90
3727;DHT22;1879;45.876;12.300;2022-11-27T00:37:48;5.70;99.90
3727;DHT22;1879;45.876;12.300;2022-11-27T00:40:15;5.60;99.90
3727;DHT22;1879;45.876;12.300;2022-11-27T00:42:42;5.60;99.90
3727;DHT22;1879;45.876;12.300;2022-11-27T00:45:11;5.50;99.90
3727;DHT22;1879;45.876;12.300;2022-11-27T00:47:37;5.50;99.90
3727;DHT22;1879;45.876;12.300;2022-11-27T00:50:06;5.40;99.90
3727;DHT22;1879;45.876;12.300;2022-11-27T00:52:33;5.40;99.90
3727;DHT22;1879;45.876;12.300;2022-11-27T00:55:00;5.30;99.90
3727;DHT22;1879;45.876;12.300;2022-11-27T00:57:27;5.30;99.90
3727;DHT22;1879;45.876;12.300;2022-11-27T00:59:54;5.30;99.90
3727;DHT22;1879;45.876;12.300;2022-11-27T01:02:22;5.20;99.90
3727;DHT22;1879;45.876;12.300;2022-11-27T01:04:49;5.20;99.90
3727;DHT22;1879;45.876;12.300;2022-11-27T01:07:16;5.20;99.90
3727;DHT22;1879;45.876;12.300;2022-11-27T01:09:43;5.20;99.90
3727;DHT22;1879;45.876;12.300;2022-11-27T01:12:10;5.20;99.90
3727;DHT22;1879;45.876;12.300;2022-11-27T01:14:37;5.20;99.90
3727;DHT22;1879;45.876;12.300;2022-11-27T01:17:04;5.20;99.90
3727;DHT22;1879;45.876;12.300;2022-11-27T01:19:33;5.20;99.90
3727;DHT22;1879;45.876;12.300;2022-11-27T01:22:00;5.20;99.90
3727;DHT22;1879;45.876;12.300;2022-11-27T01:24:27;5.20;99.90
3727;DHT22;1879;45.876;12.300;2022-11-27T01:26:54;5.10;99.90
3727;DHT22;1879;45.876;12.300;2022-11-27T01:29:21;5.20;99.90
3727;DHT22;1879;45.876;12.300;2022-11-27T01:31:51;5.10;99.90
3727;DHT22;1879;45.876;12.300;2022-11-27T01:34:19;5.10;99.90
3727;DHT22;1879;45.876;12.300;2022-11-27T01:36:47;5.10;99.90
3727;DHT22;1879;45.876;12.300;2022-11-27T01:39:17;5.10;99.90
3727;DHT22;1879;45.876;12.300;2022-11-27T01:41:46;5.10;99.90
3727;DHT22;1879;45.876;12.300;2022-11-27T01:47:31;5.00;99.90
3727;DHT22;1879;45.876;12.300;2022-11-27T01:50:07;5.00;99.90
3727;DHT22;1879;45.876;12.300;2022-11-27T01:52:40;5.00;99.90
3727;DHT22;1879;45.876;12.300;2022-11-27T01:55:13;5.00;99.90
3727;DHT22;1879;45.876;12.300;2022-11-27T01:57:46;5.00;99.90
3727;DHT22;1879;45.876;12.300;2022-11-27T02:00:15;5.10;99.90
3727;DHT22;1879;45.876;12.300;2022-11-27T02:02:43;5.10;99.90
3727;DHT22;1879;45.876;12.300;2022-11-27T02:05:15;5.10;99.90
3727;DHT22;1879;45.876;12.300;2022-11-27T02:07:44;5.00;99.90
3727;DHT22;1879;45.876;12.300;2022-11-27T02:10:12;5.00;99.90
3727;DHT22;1879;45.876;12.300;2022-11-27T02:12:46;5.00;99.90
3727;DHT22;1879;45.876;12.300;2022-11-27T02:15:23;5.10;99.90
3727;DHT22;1879;45.876;12.300;2022-11-27T02:17:59;5.00;99.90
3727;DHT22;1879;45.876;12.300;2022-11-27T02:20:36;4.90;99.90
3727;DHT22;1879;45.876;12.300;2022-11-27T02:23:21;4.90;99.90
3727;DHT22;1879;45.876;12.300;2022-11-27T02:26:07;4.90;99.90
3727;DHT22;1879;45.876;12.300;2022-11-27T02:28:53;4.80;99.90
3727;DHT22;1879;45.876;12.300;2022-11-27T02:31:26;4.80;99.90
3727;DHT22;1879;45.876;12.300;2022-11-27T02:34:00;4.80;99.90
3727;DHT22;1879;45.876;12.300;2022-11-27T02:36:31;4.80;99.90
3727;DHT22;1879;45.876;12.300;2022-11-27T02:39:03;4.90;99.90
3727;DHT22;1879;45.876;12.300;2022-11-27T02:41:37;4.90;99.90
3727;DHT22;1879;45.876;12.300;2022-11-27T02:44:08;4.90;99.90
3727;DHT22;1879;45.876;12.300;2022-11-27T02:46:37;4.80;99.90
3727;DHT22;1879;45.876;12.300;2022-11-27T02:49:08;4.80;99.90
3727;DHT22;1879;45.876;12.300;2022-11-27T02:51:40;4.80;99.90
3727;DHT22;1879;45.876;12.300;2022-11-27T02:54:12;4.70;99.90
3727;DHT22;1879;45.876;12.300;2022-11-27T02:56:41;4.70;99.90
3727;DHT22;1879;45.876;12.300;2022-11-27T02:59:12;4.70;99.90
3727;DHT22;1879;45.876;12.300;2022-11-27T03:01:41;4.80;99.90
3727;DHT22;1879;45.876;12.300;2022-11-27T03:04:12;4.80;99.90
3727;DHT22;1879;45.876;12.300;2022-11-27T03:06:45;4.80;99.90
3727;DHT22;1879;45.876;12.300;2022-11-27T03:09:16;4.80;99.90
3727;DHT22;1879;45.876;12.300;2022-11-27T03:11:44;4.80;99.90
3727;DHT22;1879;45.876;12.300;2022-11-27T03:14:13;4.80;99.90
3727;DHT22;1879;45.876;12.300;2022-11-27T03:16:44;4.80;99.90
3727;DHT22;1879;45.876;12.300;2022-11-27T03:19:18;4.80;99.90
3727;DHT22;1879;45.876;12.300;2022-11-27T03:21:49;4.80;99.90
3727;DHT22;1879;45.876;12.300;2022-11-27T03:24:18;4.90;99.90
3727;DHT22;1879;45.876;12.300;2022-11-27T03:26:45;4.90;99.90
3727;DHT22;1879;45.876;12.300;2022-11-27T03:29:16;4.80;99.90
3727;DHT22;1879;45.876;12.300;2022-11-27T03:31:44;4.70;99.90
3727;DHT22;1879;45.876;12.300;2022-11-27T03:34:11;4.70;99.90
3727;DHT22;1879;45.876;12.300;2022-11-27T03:36:38;4.80;99.90
3727;DHT22;1879;45.876;12.300;2022-11-27T03:39:05;4.70;99.90
3727;DHT22;1879;45.876;12.300;2022-11-27T03:41:39;4.70;99.90
3727;DHT22;1879;45.876;12.300;2022-11-27T03:44:19;4.70;99.90
3727;DHT22;1879;45.876;12.300;2022-11-27T03:46:56;4.70;99.90
3727;DHT22;1879;45.876;12.300;2022-11-27T03:49:31;4.70;99.90
3727;DHT22;1879;45.876;12.300;2022-11-27T03:52:05;4.70;99.90
3727;DHT22;1879;45.876;12.300;2022-11-27T03:54:41;4.70;99.90
3727;DHT22;1879;45.876;12.300;2022-11-27T03:57:14;4.70;99.90
3727;DHT22;1879;45.876;12.300;2022-11-27T03:59:46;4.80;99.90
3727;DHT22;1879;45.876;12.300;2022-11-27T04:02:24;4.90;99.90
3727;DHT22;1879;45.876;12.300;2022-11-27T04:04:51;4.90;99.90
3727;DHT22;1879;45.876;12.300;2022-11-27T04:07:18;4.90;99.90
3727;DHT22;1879;45.876;12.300;2022-11-27T04:09:45;4.90;99.90
3727;DHT22;1879;45.876;12.300;2022-11-27T04:12:12;4.80;99.90
3727;DHT22;1879;45.876;12.300;2022-11-27T04:14:39;4.70;99.90
3727;DHT22;1879;45.876;12.300;2022-11-27T04:17:08;4.60;99.90
3727;DHT22;1879;45.876;12.300;2022-11-27T04:19:35;4.60;99.90
3727;DHT22;1879;45.876;12.300;2022-11-27T04:22:02;4.50;99.90
3727;DHT22;1879;45.876;12.300;2022-11-27T04:24:29;4.40;99.90
3727;DHT22;1879;45.876;12.300;2022-11-27T04:26:56;4.40;99.90
3727;DHT22;1879;45.876;12.300;2022-11-27T04:29:23;4.30;99.90
3727;DHT22;1879;45.876;12.300;2022-11-27T04:31:50;4.30;99.90
3727;DHT22;1879;45.876;12.300;2022-11-27T04:34:19;4.30;99.90
3727;DHT22;1879;45.876;12.300;2022-11-27T04:36:46;4.30;99.90
3727;DHT22;1879;45.876;12.300;2022-11-27T04:39:13;4.30;99.90
3727;DHT22;1879;45.876;12.300;2022-11-27T04:41:40;4.20;99.90
3727;DHT22;1879;45.876;12.300;2022-11-27T04:44:07;4.20;99.90
3727;DHT22;1879;45.876;12.300;2022-11-27T04:46:34;4.20;99.90
3727;DHT22;1879;45.876;12.300;2022-11-27T04:49:01;4.20;99.90
3727;DHT22;1879;45.876;12.300;2022-11-27T04:51:29;4.20;99.90
3727;DHT22;1879;45.876;12.300;2022-11-27T04:53:57;4.20;99.90
3727;DHT22;1879;45.876;12.300;2022-11-27T04:56:24;4.20;99.90
3727;DHT22;1879;45.876;12.300;2022-11-27T04:58:51;4.20;99.90
3727;DHT22;1879;45.876;12.300;2022-11-27T05:01:18;4.20;99.90
3727;DHT22;1879;45.876;12.300;2022-11-27T05:03:46;4.20;99.90
3727;DHT22;1879;45.876;12.300;2022-11-27T05:06:13;4.20;99.90
3727;DHT22;1879;45.876;12.300;2022-11-27T05:08:41;4.10;99.90
3727;DHT22;1879;45.876;12.300;2022-11-27T05:11:11;4.20;99.90
3727;DHT22;1879;45.876;12.300;2022-11-27T05:13:38;4.20;99.90
3727;DHT22;1879;45.876;12.300;2022-11-27T05:16:06;4.20;99.90
3727;DHT22;1879;45.876;12.300;2022-11-27T05:18:33;4.20;99.90
3727;DHT22;1879;45.876;12.300;2022-11-27T05:21:03;4.20;99.90
3727;DHT22;1879;45.876;12.300;2022-11-27T05:23:31;4.20;99.90
3727;DHT22;1879;45.876;12.300;2022-11-27T05:26:00;4.10;99.90
3727;DHT22;1879;45.876;12.300;2022-11-27T05:28:28;4.20;99.90
3727;DHT22;1879;45.876;12.300;2022-11-27T05:30:54;4.10;99.90
3727;DHT22;1879;45.876;12.300;2022-11-27T05:33:21;4.10;99.90
3727;DHT22;1879;45.876;12.300;2022-11-27T05:35:48;4.10;99.90
3727;DHT22;1879;45.876;12.300;2022-11-27T05:38:15;4.10;99.90
3727;DHT22;1879;45.876;12.300;2022-11-27T05:40:42;4.10;99.90
3727;DHT22;1879;45.876;12.300;2022-11-27T05:43:11;4.10;99.90
3727;DHT22;1879;45.876;12.300;2022-11-27T05:45:38;4.10;99.90
3727;DHT22;1879;45.876;12.300;2022-11-27T05:48:05;4.20;99.90
3727;DHT22;1879;45.876;12.300;2022-11-27T05:50:35;4.20;99.90
3727;DHT22;1879;45.876;12.300;2022-11-27T05:53:02;4.20;99.90
3727;DHT22;1879;45.876;12.300;2022-11-27T05:55:29;4.30;99.90
3727;DHT22;1879;45.876;12.300;2022-11-27T05:57:57;4.30;99.90
3727;DHT22;1879;45.876;12.300;2022-11-27T06:00:25;4.40;99.90
3727;DHT22;1879;45.876;12.300;2022-11-27T06:02:52;4.50;99.90
3727;DHT22;1879;45.876;12.300;2022-11-27T06:05:20;4.50;99.90
3727;DHT22;1879;45.876;12.300;2022-11-27T06:07:47;4.60;99.90
3727;DHT22;1879;45.876;12.300;2022-11-27T06:10:14;4.60;99.90
3727;DHT22;1879;45.876;12.300;2022-11-27T06:12:41;4.60;99.90
3727;DHT22;1879;45.876;12.300;2022-11-27T06:15:09;4.60;99.90
3727;DHT22;1879;45.876;12.300;2022-11-27T06:17:37;4.50;99.90
3727;DHT22;1879;45.876;12.300;2022-11-27T06:20:05;4.50;99.90
3727;DHT22;1879;45.876;12.300;2022-11-27T06:22:33;4.40;99.90
3727;DHT22;1879;45.876;12.300;2022-11-27T06:24:59;4.40;99.90
3727;DHT22;1879;45.876;12.300;2022-11-27T06:27:31;4.50;99.90
3727;DHT22;1879;45.876;12.300;2022-11-27T06:29:58;4.50;99.90
3727;DHT22;1879;45.876;12.300;2022-11-27T06:32:26;4.60;99.90
3727;DHT22;1879;45.876;12.300;2022-11-27T06:34:55;4.60;99.90
3727;DHT22;1879;45.876;12.300;2022-11-27T06:37:22;4.60;99.90
3727;DHT22;1879;45.876;12.300;2022-11-27T06:39:49;4.60;99.90
3727;DHT22;1879;45.876;12.300;2022-11-27T06:42:16;4.60;99.90
3727;DHT22;1879;45.876;12.300;2022-11-27T06:44:45;4.50;99.90
3727;DHT22;1879;45.876;12.300;2022-11-27T06:47:11;4.50;99.90
3727;DHT22;1879;45.876;12.300;2022-11-27T06:49:38;4.40;99.90
3727;DHT22;1879;45.876;12.300;2022-11-27T06:52:07;4.50;99.90
3727;DHT22;1879;45.876;12.300;2022-11-27T06:54:34;4.60;99.90
3727;DHT22;1879;45.876;12.300;2022-11-27T06:57:01;4.60;99.90
3727;DHT22;1879;45.876;12.300;2022-11-27T06:59:28;4.70;99.90
3727;DHT22;1879;45.876;12.300;2022-11-27T07:01:55;4.70;99.90
3727;DHT22;1879;45.876;12.300;2022-11-27T07:04:22;4.60;99.90
3727;DHT22;1879;45.876;12.300;2022-11-27T07:06:49;4.60;99.90
3727;DHT22;1879;45.876;12.300;2022-11-27T07:09:17;4.60;99.90
3727;DHT22;1879;45.876;12.300;2022-11-27T07:11:44;4.70;99.90
3727;DHT22;1879;45.876;12.300;2022-11-27T07:14:11;4.80;99.90
3727;DHT22;1879;45.876;12.300;2022-11-27T07:16:38;4.80;99.90
3727;DHT22;1879;45.876;12.300;2022-11-27T07:19:06;4.80;99.90
3727;DHT22;1879;45.876;12.300;2022-11-27T07:21:35;4.90;99.90
3727;DHT22;1879;45.876;12.300;2022-11-27T07:24:03;4.90;99.90
3727;DHT22;1879;45.876;12.300;2022-11-27T07:26:31;5.00;99.90
3727;DHT22;1879;45.876;12.300;2022-11-27T07:28:58;5.00;99.90
3727;DHT22;1879;45.876;12.300;2022-11-27T07:31:27;5.00;99.90
3727;DHT22;1879;45.876;12.300;2022-11-27T07:33:54;5.10;99.90
3727;DHT22;1879;45.876;12.300;2022-11-27T07:36:23;5.20;99.90
3727;DHT22;1879;45.876;12.300;2022-11-27T07:38:50;5.40;99.90
3727;DHT22;1879;45.876;12.300;2022-11-27T07:41:18;5.50;99.90
3727;DHT22;1879;45.876;12.300;2022-11-27T07:43:46;5.60;99.90
3727;DHT22;1879;45.876;12.300;2022-11-27T07:46:16;5.80;99.90
3727;DHT22;1879;45.876;12.300;2022-11-27T07:48:43;5.90;99.90
3727;DHT22;1879;45.876;12.300;2022-11-27T07:51:16;6.10;99.90
3727;DHT22;1879;45.876;12.300;2022-11-27T07:53:43;6.20;99.90
3727;DHT22;1879;45.876;12.300;2022-11-27T07:56:12;6.20;99.90
3727;DHT22;1879;45.876;12.300;2022-11-27T07:58:40;6.30;99.90
3727;DHT22;1879;45.876;12.300;2022-11-27T08:01:10;6.30;99.90
3727;DHT22;1879;45.876;12.300;2022-11-27T08:03:38;6.40;99.90
3727;DHT22;1879;45.876;12.300;2022-11-27T08:06:13;6.40;99.90
3727;DHT22;1879;45.876;12.300;2022-11-27T08:08:41;6.50;99.90
3727;DHT22;1879;45.876;12.300;2022-11-27T08:11:15;6.50;99.90
3727;DHT22;1879;45.876;12.300;2022-11-27T08:13:42;6.60;99.90
3727;DHT22;1879;45.876;12.300;2022-11-27T08:16:11;6.70;99.90
3727;DHT22;1879;45.876;12.300;2022-11-27T08:18:38;6.90;99.90
3727;DHT22;1879;45.876;12.300;2022-11-27T08:21:05;7.00;99.90
3727;DHT22;1879;45.876;12.300;2022-11-27T08:23:32;7.20;99.90
3727;DHT22;1879;45.876;12.300;2022-11-27T08:25:59;7.30;99.90
3727;DHT22;1879;45.876;12.300;2022-11-27T08:28:29;7.40;99.90
3727;DHT22;1879;45.876;12.300;2022-11-27T08:30:57;7.50;99.90
3727;DHT22;1879;45.876;12.300;2022-11-27T08:33:25;7.70;99.90
3727;DHT22;1879;45.876;12.300;2022-11-27T08:35:52;7.80;99.90
3727;DHT22;1879;45.876;12.300;2022-11-27T08:38:20;8.00;99.90
3727;DHT22;1879;45.876;12.300;2022-11-27T08:40:54;8.20;99.90
3727;DHT22;1879;45.876;12.300;2022-11-27T08:43:21;8.40;99.90
3727;DHT22;1879;45.876;12.300;2022-11-27T08:45:48;8.50;99.90
3727;DHT22;1879;45.876;12.300;2022-11-27T08:48:15;8.50;99.90
3727;DHT22;1879;45.876;12.300;2022-11-27T08:50:44;8.60;99.90
3727;DHT22;1879;45.876;12.300;2022-11-27T08:53:12;8.70;99.90
3727;DHT22;1879;45.876;12.300;2022-11-27T08:55:40;8.80;99.90
3727;DHT22;1879;45.876;12.300;2022-11-27T08:58:07;8.90;99.90
3727;DHT22;1879;45.876;12.300;2022-11-27T09:00:35;9.10;99.90
3727;DHT22;1879;45.876;12.300;2022-11-27T09:03:02;9.20;99.90
3727;DHT22;1879;45.876;12.300;2022-11-27T09:05:30;9.30;99.90
3727;DHT22;1879;45.876;12.300;2022-11-27T09:07:58;9.30;99.90
3727;DHT22;1879;45.876;12.300;2022-11-27T09:10:27;9.40;99.90
3727;DHT22;1879;45.876;12.300;2022-11-27T09:12:54;9.50;99.90
3727;DHT22;1879;45.876;12.300;2022-11-27T09:15:21;9.60;99.90
3727;DHT22;1879;45.876;12.300;2022-11-27T09:17:48;9.60;99.90
3727;DHT22;1879;45.876;12.300;2022-11-27T09:20:15;9.70;99.90
3727;DHT22;1879;45.876;12.300;2022-11-27T09:22:42;9.80;99.90
3727;DHT22;1879;45.876;12.300;2022-11-27T09:25:10;9.90;99.90
3727;DHT22;1879;45.876;12.300;2022-11-27T09:27:37;9.90;99.50
3727;DHT22;1879;45.876;12.300;2022-11-27T09:30:06;10.00;98.60
3727;DHT22;1879;45.876;12.300;2022-11-27T09:32:33;10.10;97.50
3727;DHT22;1879;45.876;12.300;2022-11-27T09:35:00;10.10;97.00
3727;DHT22;1879;45.876;12.300;2022-11-27T09:37:28;10.20;96.50
3727;DHT22;1879;45.876;12.300;2022-11-27T09:39:55;10.30;96.10
3727;DHT22;1879;45.876;12.300;2022-11-27T09:42:37;10.40;95.80
3727;DHT22;1879;45.876;12.300;2022-11-27T09:45:10;10.40;95.30
3727;DHT22;1879;45.876;12.300;2022-11-27T09:47:41;10.50;95.00
3727;DHT22;1879;45.876;12.300;2022-11-27T09:50:15;10.60;95.20
3727;DHT22;1879;45.876;12.300;2022-11-27T09:52:46;10.60;94.80
3727;DHT22;1879;45.876;12.300;2022-11-27T09:55:17;10.70;93.80
3727;DHT22;1879;45.876;12.300;2022-11-27T09:57:54;10.80;92.80
3727;DHT22;1879;45.876;12.300;2022-11-27T10:00:24;10.90;92.60
3727;DHT22;1879;45.876;12.300;2022-11-27T10:02:51;11.00;92.30
3727;DHT22;1879;45.876;12.300;2022-11-27T10:05:21;11.00;92.30
3727;DHT22;1879;45.876;12.300;2022-11-27T10:08:09;11.10;92.00
3727;DHT22;1879;45.876;12.300;2022-11-27T10:10:45;11.10;91.20
3727;DHT22;1879;45.876;12.300;2022-11-27T10:13:33;11.20;91.20
3727;DHT22;1879;45.876;12.300;2022-11-27T10:16:09;11.30;90.80
3727;DHT22;1879;45.876;12.300;2022-11-27T10:18:42;11.40;90.70
3727;DHT22;1879;45.876;12.300;2022-11-27T10:21:15;11.60;91.20
3727;DHT22;1879;45.876;12.300;2022-11-27T10:23:50;11.60;91.40
3727;DHT22;1879;45.876;12.300;2022-11-27T10:26:26;11.70;91.20
3727;DHT22;1879;45.876;12.300;2022-11-27T10:29:03;11.80;90.90
3727;DHT22;1879;45.876;12.300;2022-11-27T10:31:35;11.90;90.00
3727;DHT22;1879;45.876;12.300;2022-11-27T10:34:05;11.90;90.00
3727;DHT22;1879;45.876;12.300;2022-11-27T10:36:42;12.00;90.50
3727;DHT22;1879;45.876;12.300;2022-11-27T10:39:15;12.10;90.50
3727;DHT22;1879;45.876;12.300;2022-11-27T10:41:48;12.20;89.90
3727;DHT22;1879;45.876;12.300;2022-11-27T10:44:26;12.20;90.10
3727;DHT22;1879;45.876;12.300;2022-11-27T10:46:59;12.30;89.70
3727;DHT22;1879;45.876;12.300;2022-11-27T10:49:27;12.40;88.80
3727;DHT22;1879;45.876;12.300;2022-11-27T10:51:54;12.40;88.40
3727;DHT22;1879;45.876;12.300;2022-11-27T10:54:26;12.50;88.60
3727;DHT22;1879;45.876;12.300;2022-11-27T10:57:08;12.50;87.60
3727;DHT22;1879;45.876;12.300;2022-11-27T10:59:42;12.60;87.00
3727;DHT22;1879;45.876;12.300;2022-11-27T11:02:26;12.70;87.80
3727;DHT22;1879;45.876;12.300;2022-11-27T11:04:54;12.90;87.30
3727;DHT22;1879;45.876;12.300;2022-11-27T11:07:24;13.10;87.90
3727;DHT22;1879;45.876;12.300;2022-11-27T11:09:52;13.30;87.10
3727;DHT22;1879;45.876;12.300;2022-11-27T11:12:21;13.70;86.20
3727;DHT22;1879;45.876;12.300;2022-11-27T11:14:54;14.30;82.90
3727;DHT22;1879;45.876;12.300;2022-11-27T11:17:24;15.40;82.30
3727;DHT22;1879;45.876;12.300;2022-11-27T11:19:52;17.20;78.80
3727;DHT22;1879;45.876;12.300;2022-11-27T11:22:20;19.10;74.80
3727;DHT22;1879;45.876;12.300;2022-11-27T11:24:49;20.50;67.40
3727;DHT22;1879;45.876;12.300;2022-11-27T11:27:19;21.60;62.90
3727;DHT22;1879;45.876;12.300;2022-11-27T11:29:48;22.60;57.50
3727;DHT22;1879;45.876;12.300;2022-11-27T11:32:23;23.30;54.50
3727;DHT22;1879;45.876;12.300;2022-11-27T11:34:54;24.10;50.60
3727;DHT22;1879;45.876;12.300;2022-11-27T11:37:24;24.70;49.60
3727;DHT22;1879;45.876;12.300;2022-11-27T11:39:55;25.30;48.10
3727;DHT22;1879;45.876;12.300;2022-11-27T11:42:24;25.60;46.80
3727;DHT22;1879;45.876;12.300;2022-11-27T11:44:52;25.50;44.60
3727;DHT22;1879;45.876;12.300;2022-11-27T11:47:23;25.80;43.90
3727;DHT22;1879;45.876;12.300;2022-11-27T11:49:53;26.20;42.60
3727;DHT22;1879;45.876;12.300;2022-11-27T11:52:30;26.50;42.00
3727;DHT22;1879;45.876;12.300;2022-11-27T11:55:04;26.60;41.00
3727;DHT22;1879;45.876;12.300;2022-11-27T11:57:52;26.90;40.00
3727;DHT22;1879;45.876;12.300;2022-11-27T12:00:23;27.20;38.20
3727;DHT22;1879;45.876;12.300;2022-11-27T12:03:05;27.50;38.90
3727;DHT22;1879;45.876;12.300;2022-11-27T12:08:40;28.40;36.70
3727;DHT22;1879;45.876;12.300;2022-11-27T12:11:14;28.70;35.50
3727;DHT22;1879;45.876;12.300;2022-11-27T12:13:52;29.10;36.60
3727;DHT22;1879;45.876;12.300;2022-11-27T12:16:30;28.60;34.90
3727;DHT22;1879;45.876;12.300;2022-11-27T12:19:11;28.50;35.10
3727;DHT22;1879;45.876;12.300;2022-11-27T12:21:48;28.80;35.50
3727;DHT22;1879;45.876;12.300;2022-11-27T12:24:27;29.80;32.50
3727;DHT22;1879;45.876;12.300;2022-11-27T12:27:06;30.10;34.10
3727;DHT22;1879;45.876;12.300;2022-11-27T12:29:55;30.50;33.00
3727;DHT22;1879;45.876;12.300;2022-11-27T12:32:38;30.90;32.50
3727;DHT22;1879;45.876;12.300;2022-11-27T12:35:30;30.40;31.40
3727;DHT22;1879;45.876;12.300;2022-11-27T12:41:01;30.10;31.20
3727;DHT22;1879;45.876;12.300;2022-11-27T12:43:34;29.80;29.20
3727;DHT22;1879;45.876;12.300;2022-11-27T12:46:10;29.60;30.30
3727;DHT22;1879;45.876;12.300;2022-11-27T12:48:41;28.80;30.00
3727;DHT22;1879;45.876;12.300;2022-11-27T12:51:15;27.00;30.10
3727;DHT22;1879;45.876;12.300;2022-11-27T12:53:48;24.90;31.20
3727;DHT22;1879;45.876;12.300;2022-11-27T12:56:21;23.00;33.00
3727;DHT22;1879;45.876;12.300;2022-11-27T12:58:53;21.30;34.40
3727;DHT22;1879;45.876;12.300;2022-11-27T13:01:26;20.10;35.70
3727;DHT22;1879;45.876;12.300;2022-11-27T13:04:04;19.20;37.10
3727;DHT22;1879;45.876;12.300;2022-11-27T13:06:45;18.50;38.90
3727;DHT22;1879;45.876;12.300;2022-11-27T13:09:18;17.90;40.40
3727;DHT22;1879;45.876;12.300;2022-11-27T13:11:46;17.60;40.40
3727;DHT22;1879;45.876;12.300;2022-11-27T13:14:17;17.30;41.50
3727;DHT22;1879;45.876;12.300;2022-11-27T13:16:47;16.80;42.30
3727;DHT22;1879;45.876;12.300;2022-11-27T13:19:21;16.20;41.80
3727;DHT22;1879;45.876;12.300;2022-11-27T13:21:52;16.10;41.70
3727;DHT22;1879;45.876;12.300;2022-11-27T13:24:21;16.00;42.30
3727;DHT22;1879;45.876;12.300;2022-11-27T13:26:55;15.90;43.10
3727;DHT22;1879;45.876;12.300;2022-11-27T13:29:27;15.90;43.00
3727;DHT22;1879;45.876;12.300;2022-11-27T13:31:59;16.10;43.00
3727;DHT22;1879;45.876;12.300;2022-11-27T13:34:29;16.90;42.90
3727;DHT22;1879;45.876;12.300;2022-11-27T13:37:01;18.30;41.90
3727;DHT22;1879;45.876;12.300;2022-11-27T13:39:30;19.80;39.60
3727;DHT22;1879;45.876;12.300;2022-11-27T13:42:01;21.20;39.00
3727;DHT22;1879;45.876;12.300;2022-11-27T13:44:29;22.40;38.30
3727;DHT22;1879;45.876;12.300;2022-11-27T13:46:59;23.50;36.80
3727;DHT22;1879;45.876;12.300;2022-11-27T13:49:32;24.30;36.20
3727;DHT22;1879;45.876;12.300;2022-11-27T13:52:10;25.00;35.70
3727;DHT22;1879;45.876;12.300;2022-11-27T13:54:51;25.70;34.70
3727;DHT22;1879;45.876;12.300;2022-11-27T13:57:19;26.10;33.70
3727;DHT22;1879;45.876;12.300;2022-11-27T13:59:57;26.10;33.80
3727;DHT22;1879;45.876;12.300;2022-11-27T14:02:37;25.50;32.90
3727;DHT22;1879;45.876;12.300;2022-11-27T14:05:05;23.90;33.40
3727;DHT22;1879;45.876;12.300;2022-11-27T14:07:37;22.60;33.80
3727;DHT22;1879;45.876;12.300;2022-11-27T14:10:09;21.40;34.70
3727;DHT22;1879;45.876;12.300;2022-11-27T14:12:38;20.90;36.50
3727;DHT22;1879;45.876;12.300;2022-11-27T14:15:08;20.10;38.00
3727;DHT22;1879;45.876;12.300;2022-11-27T14:17:38;19.30;38.40
3727;DHT22;1879;45.876;12.300;2022-11-27T14:20:22;18.30;38.80
3727;DHT22;1879;45.876;12.300;2022-11-27T14:22:53;17.50;39.20
3727;DHT22;1879;45.876;12.300;2022-11-27T14:25:23;16.80;40.00
3727;DHT22;1879;45.876;12.300;2022-11-27T14:27:58;16.60;40.50
3727;DHT22;1879;45.876;12.300;2022-11-27T14:30:32;16.50;41.70
3727;DHT22;1879;45.876;12.300;2022-11-27T14:33:02;16.40;41.80
3727;DHT22;1879;45.876;12.300;2022-11-27T14:35:29;16.10;42.60
3727;DHT22;1879;45.876;12.300;2022-11-27T14:38:14;15.80;43.70
3727;DHT22;1879;45.876;12.300;2022-11-27T14:40:41;15.40;44.80
3727;DHT22;1879;45.876;12.300;2022-11-27T14:43:12;15.10;44.60
3727;DHT22;1879;45.876;12.300;2022-11-27T14:45:42;15.00;43.90
3727;DHT22;1879;45.876;12.300;2022-11-27T14:48:18;15.10;45.30
3727;DHT22;1879;45.876;12.300;2022-11-27T14:50:47;15.10;45.00
3727;DHT22;1879;45.876;12.300;2022-11-27T14:53:17;14.90;45.20
3727;DHT22;1879;45.876;12.300;2022-11-27T14:55:46;14.60;45.30
3727;DHT22;1879;45.876;12.300;2022-11-27T14:58:17;14.50;45.60
3727;DHT22;1879;45.876;12.300;2022-11-27T15:00:54;14.20;46.80
3727;DHT22;1879;45.876;12.300;2022-11-27T15:03:22;14.00;47.70
3727;DHT22;1879;45.876;12.300;2022-11-27T15:05:52;13.80;48.20
3727;DHT22;1879;45.876;12.300;2022-11-27T15:08:22;13.70;48.90
3727;DHT22;1879;45.876;12.300;2022-11-27T15:10:52;13.50;49.30
3727;DHT22;1879;45.876;12.300;2022-11-27T15:13:22;13.30;49.30
3727;DHT22;1879;45.876;12.300;2022-11-27T15:15:56;13.10;49.40
3727;DHT22;1879;45.876;12.300;2022-11-27T15:18:25;13.00;50.60
3727;DHT22;1879;45.876;12.300;2022-11-27T15:20:53;12.90;51.00
3727;DHT22;1879;45.876;12.300;2022-11-27T15:23:24;12.80;51.40
3727;DHT22;1879;45.876;12.300;2022-11-27T15:26:07;12.70;52.40
3727;DHT22;1879;45.876;12.300;2022-11-27T15:28:39;12.50;53.50
3727;DHT22;1879;45.876;12.300;2022-11-27T15:31:24;12.40;53.70
3727;DHT22;1879;45.876;12.300;2022-11-27T15:33:57;12.10;54.90
3727;DHT22;1879;45.876;12.300;2022-11-27T15:36:25;12.00;55.00
3727;DHT22;1879;45.876;12.300;2022-11-27T15:39:04;11.90;54.70
3727;DHT22;1879;45.876;12.300;2022-11-27T15:41:36;11.80;56.40
3727;DHT22;1879;45.876;12.300;2022-11-27T15:44:03;11.70;56.30
3727;DHT22;1879;45.876;12.300;2022-11-27T15:46:33;11.60;56.80
3727;DHT22;1879;45.876;12.300;2022-11-27T15:49:00;11.50;57.60
3727;DHT22;1879;45.876;12.300;2022-11-27T15:51:27;11.40;58.00
3727;DHT22;1879;45.876;12.300;2022-11-27T15:53:56;11.40;58.40
3727;DHT22;1879;45.876;12.300;2022-11-27T15:56:23;11.40;59.60
3727;DHT22;1879;45.876;12.300;2022-11-27T15:58:50;11.20;61.30
3727;DHT22;1879;45.876;12.300;2022-11-27T16:01:17;11.10;62.60
3727;DHT22;1879;45.876;12.300;2022-11-27T16:03:44;11.00;63.20
3727;DHT22;1879;45.876;12.300;2022-11-27T16:06:11;11.00;64.60
3727;DHT22;1879;45.876;12.300;2022-11-27T16:08:38;11.00;66.30
3727;DHT22;1879;45.876;12.300;2022-11-27T16:11:10;11.00;68.00
3727;DHT22;1879;45.876;12.300;2022-11-27T16:13:38;10.90;69.50
3727;DHT22;1879;45.876;12.300;2022-11-27T16:16:07;10.80;70.00
3727;DHT22;1879;45.876;12.300;2022-11-27T16:18:34;10.60;70.90
3727;DHT22;1879;45.876;12.300;2022-11-27T16:21:02;10.50;72.70
3727;DHT22;1879;45.876;12.300;2022-11-27T16:23:30;10.40;74.10